Terminal Aerodrome Forecast
Issued by NWS Denver/Boulder, CO

Home | Current Version | Previous Version | Text Only | Print | Product List | Glossary On
Versions: 1 2 3 4 5 6 7 8 9 10 11 12 13 14 15 16 17 18 19 20 21 22 23 24 25 26 27 28 29 30 31 32 33 34 35 36 37 38 39 40 41 42 43 44 45 46 47 48 49 50
524
FTUS45 KBOU 252341
TAFDEN
TAF
KDEN 252341Z 2600/2706 26014G22KT P6SM FEW100 FEW220
     FM260100 24013KT P6SM FEW100 FEW220
     FM260200 20011KT P6SM FEW100 SCT220
     FM261400 VRB05KT P6SM SCT220
     FM261700 14007KT P6SM FEW140 SCT220
     FM262100 09007KT P6SM FEW100 BKN200
     FM262300 35013KT P6SM FEW080 BKN140
     FM270400 25010KT P6SM SCT140 SCT200=

USA.gov is the U.S. government's official web portal to all federal, state and local government web resources and services.